sensor_id;sensor_type;location;lat;lon;timestamp;temperature;humidity
16976;DHT22;8604;48.148;-1.786;2023-06-14T00:00:59;17.50;99.90
16976;DHT22;8604;48.148;-1.786;2023-06-14T00:03:29;17.50;99.90
16976;DHT22;8604;48.148;-1.786;2023-06-14T00:05:59;17.50;99.90
16976;DHT22;8604;48.148;-1.786;2023-06-14T00:08:29;17.50;99.90
16976;DHT22;8604;48.148;-1.786;2023-06-14T00:10:57;17.50;99.90
16976;DHT22;8604;48.148;-1.786;2023-06-14T00:13:25;17.50;99.90
16976;DHT22;8604;48.148;-1.786;2023-06-14T00:15:54;17.50;99.90
16976;DHT22;8604;48.148;-1.786;2023-06-14T00:18:22;17.40;99.90
16976;DHT22;8604;48.148;-1.786;2023-06-14T00:20:52;17.50;99.90
16976;DHT22;8604;48.148;-1.786;2023-06-14T00:23:20;17.40;99.90
16976;DHT22;8604;48.148;-1.786;2023-06-14T00:25:50;17.40;99.90
16976;DHT22;8604;48.148;-1.786;2023-06-14T00:28:18;17.40;99.90
16976;DHT22;8604;48.148;-1.786;2023-06-14T00:30:47;17.30;99.90
16976;DHT22;8604;48.148;-1.786;2023-06-14T00:33:15;17.30;99.90
16976;DHT22;8604;48.148;-1.786;2023-06-14T00:35:44;17.30;99.90
16976;DHT22;8604;48.148;-1.786;2023-06-14T00:38:12;17.30;99.90
16976;DHT22;8604;48.148;-1.786;2023-06-14T00:40:41;17.20;99.90
16976;DHT22;8604;48.148;-1.786;2023-06-14T00:43:14;17.20;99.90
16976;DHT22;8604;48.148;-1.786;2023-06-14T00:45:43;17.20;99.90
16976;DHT22;8604;48.148;-1.786;2023-06-14T00:48:13;17.20;99.90
16976;DHT22;8604;48.148;-1.786;2023-06-14T00:50:43;17.20;99.90
16976;DHT22;8604;48.148;-1.786;2023-06-14T00:53:13;17.20;99.90
16976;DHT22;8604;48.148;-1.786;2023-06-14T00:55:42;17.20;99.90
16976;DHT22;8604;48.148;-1.786;2023-06-14T00:58:10;17.20;99.90
16976;DHT22;8604;48.148;-1.786;2023-06-14T01:00:43;17.20;99.90
16976;DHT22;8604;48.148;-1.786;2023-06-14T01:03:11;17.20;99.90
16976;DHT22;8604;48.148;-1.786;2023-06-14T01:05:42;17.10;99.90
16976;DHT22;8604;48.148;-1.786;2023-06-14T01:08:21;17.10;99.90
16976;DHT22;8604;48.148;-1.786;2023-06-14T01:10:56;17.10;99.90
16976;DHT22;8604;48.148;-1.786;2023-06-14T01:13:32;17.10;99.90
16976;DHT22;8604;48.148;-1.786;2023-06-14T01:16:03;17.10;99.90
16976;DHT22;8604;48.148;-1.786;2023-06-14T01:18:34;17.10;99.90
16976;DHT22;8604;48.148;-1.786;2023-06-14T01:21:02;17.00;99.90
16976;DHT22;8604;48.148;-1.786;2023-06-14T01:23:34;17.00;99.90
16976;DHT22;8604;48.148;-1.786;2023-06-14T01:26:02;17.00;99.90
16976;DHT22;8604;48.148;-1.786;2023-06-14T01:28:33;17.00;99.90
16976;DHT22;8604;48.148;-1.786;2023-06-14T01:31:03;16.90;99.90
16976;DHT22;8604;48.148;-1.786;2023-06-14T01:33:33;16.90;99.90
16976;DHT22;8604;48.148;-1.786;2023-06-14T01:36:04;16.90;99.90
16976;DHT22;8604;48.148;-1.786;2023-06-14T01:38:36;16.90;99.90
16976;DHT22;8604;48.148;-1.786;2023-06-14T01:41:06;16.80;99.90
16976;DHT22;8604;48.148;-1.786;2023-06-14T01:43:34;16.80;99.90
16976;DHT22;8604;48.148;-1.786;2023-06-14T01:46:06;16.80;99.90
16976;DHT22;8604;48.148;-1.786;2023-06-14T01:48:35;16.80;99.90
16976;DHT22;8604;48.148;-1.786;2023-06-14T01:51:03;16.80;99.90
16976;DHT22;8604;48.148;-1.786;2023-06-14T01:53:32;16.80;99.90
16976;DHT22;8604;48.148;-1.786;2023-06-14T01:56:02;16.80;99.90
16976;DHT22;8604;48.148;-1.786;2023-06-14T01:58:31;16.80;99.90
16976;DHT22;8604;48.148;-1.786;2023-06-14T02:01:00;16.80;99.90
16976;DHT22;8604;48.148;-1.786;2023-06-14T02:03:29;16.80;99.90
16976;DHT22;8604;48.148;-1.786;2023-06-14T02:05:58;16.80;99.90
16976;DHT22;8604;48.148;-1.786;2023-06-14T02:08:27;16.80;99.90
16976;DHT22;8604;48.148;-1.786;2023-06-14T02:10:55;16.70;99.90
16976;DHT22;8604;48.148;-1.786;2023-06-14T02:13:25;16.80;99.90
16976;DHT22;8604;48.148;-1.786;2023-06-14T02:15:53;16.70;99.90
16976;DHT22;8604;48.148;-1.786;2023-06-14T02:18:23;16.70;99.90
16976;DHT22;8604;48.148;-1.786;2023-06-14T02:20:51;16.70;99.90
16976;DHT22;8604;48.148;-1.786;2023-06-14T02:23:20;16.70;99.90
16976;DHT22;8604;48.148;-1.786;2023-06-14T02:25:48;16.70;99.90
16976;DHT22;8604;48.148;-1.786;2023-06-14T02:28:17;16.70;99.90
16976;DHT22;8604;48.148;-1.786;2023-06-14T02:30:46;16.70;99.90
16976;DHT22;8604;48.148;-1.786;2023-06-14T02:33:15;16.70;99.90
16976;DHT22;8604;48.148;-1.786;2023-06-14T02:35:44;16.70;99.90
16976;DHT22;8604;48.148;-1.786;2023-06-14T02:38:13;16.70;99.90
16976;DHT22;8604;48.148;-1.786;2023-06-14T02:40:41;16.70;99.90
16976;DHT22;8604;48.148;-1.786;2023-06-14T02:43:10;16.70;99.90
16976;DHT22;8604;48.148;-1.786;2023-06-14T02:45:38;16.70;99.90
16976;DHT22;8604;48.148;-1.786;2023-06-14T02:48:08;16.60;99.90
16976;DHT22;8604;48.148;-1.786;2023-06-14T02:50:40;16.60;99.90
16976;DHT22;8604;48.148;-1.786;2023-06-14T02:53:08;16.60;99.90
16976;DHT22;8604;48.148;-1.786;2023-06-14T02:55:37;16.50;99.90
16976;DHT22;8604;48.148;-1.786;2023-06-14T02:58:07;16.50;99.90
16976;DHT22;8604;48.148;-1.786;2023-06-14T03:00:36;16.50;99.90
16976;DHT22;8604;48.148;-1.786;2023-06-14T03:03:06;16.50;99.90
16976;DHT22;8604;48.148;-1.786;2023-06-14T03:05:45;16.40;99.90
16976;DHT22;8604;48.148;-1.786;2023-06-14T03:08:16;16.40;99.90
16976;DHT22;8604;48.148;-1.786;2023-06-14T03:10:50;16.40;99.90
16976;DHT22;8604;48.148;-1.786;2023-06-14T03:13:19;16.40;99.90
16976;DHT22;8604;48.148;-1.786;2023-06-14T03:15:48;16.40;99.90
16976;DHT22;8604;48.148;-1.786;2023-06-14T03:18:19;16.30;99.90
16976;DHT22;8604;48.148;-1.786;2023-06-14T03:20:56;16.30;99.90
16976;DHT22;8604;48.148;-1.786;2023-06-14T03:23:28;16.30;99.90
16976;DHT22;8604;48.148;-1.786;2023-06-14T03:25:57;16.20;99.90
16976;DHT22;8604;48.148;-1.786;2023-06-14T03:28:26;16.20;99.90
16976;DHT22;8604;48.148;-1.786;2023-06-14T03:30:56;16.10;99.90
16976;DHT22;8604;48.148;-1.786;2023-06-14T03:33:25;16.10;99.90
16976;DHT22;8604;48.148;-1.786;2023-06-14T03:35:56;16.10;99.90
16976;DHT22;8604;48.148;-1.786;2023-06-14T03:38:24;16.10;99.90
16976;DHT22;8604;48.148;-1.786;2023-06-14T03:40:53;16.10;99.90
16976;DHT22;8604;48.148;-1.786;2023-06-14T03:43:21;16.10;99.90
16976;DHT22;8604;48.148;-1.786;2023-06-14T03:45:50;16.00;99.90
16976;DHT22;8604;48.148;-1.786;2023-06-14T03:48:19;16.00;99.90
16976;DHT22;8604;48.148;-1.786;2023-06-14T03:50:48;16.00;99.90
16976;DHT22;8604;48.148;-1.786;2023-06-14T03:53:18;16.00;99.90
16976;DHT22;8604;48.148;-1.786;2023-06-14T03:55:52;16.00;99.90
16976;DHT22;8604;48.148;-1.786;2023-06-14T03:58:27;16.00;99.90
16976;DHT22;8604;48.148;-1.786;2023-06-14T04:00:56;16.00;99.90
16976;DHT22;8604;48.148;-1.786;2023-06-14T04:03:25;16.00;99.90
16976;DHT22;8604;48.148;-1.786;2023-06-14T04:05:57;16.00;99.90
16976;DHT22;8604;48.148;-1.786;2023-06-14T04:08:28;16.00;99.90
16976;DHT22;8604;48.148;-1.786;2023-06-14T04:10:58;16.00;99.90
16976;DHT22;8604;48.148;-1.786;2023-06-14T04:13:26;16.00;99.90
16976;DHT22;8604;48.148;-1.786;2023-06-14T04:15:55;16.00;99.90
16976;DHT22;8604;48.148;-1.786;2023-06-14T04:18:29;16.00;99.90
16976;DHT22;8604;48.148;-1.786;2023-06-14T04:20:57;15.90;99.90
16976;DHT22;8604;48.148;-1.786;2023-06-14T04:23:28;15.90;99.90
16976;DHT22;8604;48.148;-1.786;2023-06-14T04:25:57;15.90;99.90
16976;DHT22;8604;48.148;-1.786;2023-06-14T04:28:29;15.90;99.90
16976;DHT22;8604;48.148;-1.786;2023-06-14T04:31:01;15.90;99.90
16976;DHT22;8604;48.148;-1.786;2023-06-14T04:33:32;15.90;99.90
16976;DHT22;8604;48.148;-1.786;2023-06-14T04:36:02;15.90;99.90
16976;DHT22;8604;48.148;-1.786;2023-06-14T04:38:33;15.90;99.90
16976;DHT22;8604;48.148;-1.786;2023-06-14T04:41:02;15.90;99.90
16976;DHT22;8604;48.148;-1.786;2023-06-14T04:43:32;15.90;99.90
16976;DHT22;8604;48.148;-1.786;2023-06-14T04:46:06;15.90;99.90
16976;DHT22;8604;48.148;-1.786;2023-06-14T04:48:39;15.90;99.90
16976;DHT22;8604;48.148;-1.786;2023-06-14T04:51:10;15.90;99.90
16976;DHT22;8604;48.148;-1.786;2023-06-14T04:53:41;16.00;99.90
16976;DHT22;8604;48.148;-1.786;2023-06-14T04:56:11;16.00;99.90
16976;DHT22;8604;48.148;-1.786;2023-06-14T04:58:40;16.00;99.90
16976;DHT22;8604;48.148;-1.786;2023-06-14T05:01:09;16.00;99.90
16976;DHT22;8604;48.148;-1.786;2023-06-14T05:03:37;16.00;99.90
16976;DHT22;8604;48.148;-1.786;2023-06-14T05:06:05;16.00;99.90
16976;DHT22;8604;48.148;-1.786;2023-06-14T05:08:34;16.00;99.90
16976;DHT22;8604;48.148;-1.786;2023-06-14T05:11:04;16.00;99.90
16976;DHT22;8604;48.148;-1.786;2023-06-14T05:13:32;16.10;99.90
16976;DHT22;8604;48.148;-1.786;2023-06-14T05:16:01;16.10;99.90
16976;DHT22;8604;48.148;-1.786;2023-06-14T05:18:30;16.10;99.90
16976;DHT22;8604;48.148;-1.786;2023-06-14T05:21:01;16.20;99.90
16976;DHT22;8604;48.148;-1.786;2023-06-14T05:23:31;16.20;99.90
16976;DHT22;8604;48.148;-1.786;2023-06-14T05:25:59;16.30;99.90
16976;DHT22;8604;48.148;-1.786;2023-06-14T05:28:31;16.30;99.90
16976;DHT22;8604;48.148;-1.786;2023-06-14T05:30:59;16.30;99.90
16976;DHT22;8604;48.148;-1.786;2023-06-14T05:33:27;16.40;99.90
16976;DHT22;8604;48.148;-1.786;2023-06-14T05:35:56;16.40;99.90
16976;DHT22;8604;48.148;-1.786;2023-06-14T05:38:24;16.50;99.90
16976;DHT22;8604;48.148;-1.786;2023-06-14T05:40:53;16.50;99.90
16976;DHT22;8604;48.148;-1.786;2023-06-14T05:43:22;16.50;99.90
16976;DHT22;8604;48.148;-1.786;2023-06-14T07:14:52;20.00;99.90
16976;DHT22;8604;48.148;-1.786;2023-06-14T07:17:20;20.20;99.90
16976;DHT22;8604;48.148;-1.786;2023-06-14T07:19:52;20.40;99.90
16976;DHT22;8604;48.148;-1.786;2023-06-14T07:22:21;20.60;99.90
16976;DHT22;8604;48.148;-1.786;2023-06-14T07:25:15;20.80;99.90
16976;DHT22;8604;48.148;-1.786;2023-06-14T07:31:08;21.30;99.90
16976;DHT22;8604;48.148;-1.786;2023-06-14T07:33:37;21.60;99.90
16976;DHT22;8604;48.148;-1.786;2023-06-14T07:36:06;21.90;99.90
16976;DHT22;8604;48.148;-1.786;2023-06-14T07:38:35;21.90;99.90
16976;DHT22;8604;48.148;-1.786;2023-06-14T07:41:04;22.10;99.90
16976;DHT22;8604;48.148;-1.786;2023-06-14T07:43:32;22.20;99.90
16976;DHT22;8604;48.148;-1.786;2023-06-14T07:46:04;22.40;99.90
16976;DHT22;8604;48.148;-1.786;2023-06-14T07:48:38;22.50;99.90
16976;DHT22;8604;48.148;-1.786;2023-06-14T07:51:07;22.70;99.90
16976;DHT22;8604;48.148;-1.786;2023-06-14T07:53:36;23.00;99.90
16976;DHT22;8604;48.148;-1.786;2023-06-14T07:56:05;23.40;99.90
16976;DHT22;8604;48.148;-1.786;2023-06-14T07:58:33;24.00;99.90
16976;DHT22;8604;48.148;-1.786;2023-06-14T08:01:02;24.50;99.90
16976;DHT22;8604;48.148;-1.786;2023-06-14T08:03:33;24.80;99.90
16976;DHT22;8604;48.148;-1.786;2023-06-14T08:06:06;25.30;99.90
16976;DHT22;8604;48.148;-1.786;2023-06-14T08:08:40;25.80;99.90
16976;DHT22;8604;48.148;-1.786;2023-06-14T08:17:02;26.40;99.90
16976;DHT22;8604;48.148;-1.786;2023-06-14T08:19:43;27.20;99.90
16976;DHT22;8604;48.148;-1.786;2023-06-14T08:22:18;27.80;99.90
16976;DHT22;8604;48.148;-1.786;2023-06-14T08:24:47;27.60;99.90
16976;DHT22;8604;48.148;-1.786;2023-06-14T08:27:16;27.70;99.90
16976;DHT22;8604;48.148;-1.786;2023-06-14T08:29:48;28.10;99.90
16976;DHT22;8604;48.148;-1.786;2023-06-14T08:32:16;28.50;99.90
16976;DHT22;8604;48.148;-1.786;2023-06-14T08:34:46;28.80;99.90
16976;DHT22;8604;48.148;-1.786;2023-06-14T08:37:33;28.70;99.90
16976;DHT22;8604;48.148;-1.786;2023-06-14T08:40:04;28.40;99.90
16976;DHT22;8604;48.148;-1.786;2023-06-14T08:42:36;28.60;99.90
16976;DHT22;8604;48.148;-1.786;2023-06-14T08:45:18;28.60;99.90
16976;DHT22;8604;48.148;-1.786;2023-06-14T08:52:21;28.40;99.90
16976;DHT22;8604;48.148;-1.786;2023-06-14T08:54:51;28.50;99.90
16976;DHT22;8604;48.148;-1.786;2023-06-14T08:57:21;28.60;99.90
16976;DHT22;8604;48.148;-1.786;2023-06-14T08:59:52;28.90;99.90
16976;DHT22;8604;48.148;-1.786;2023-06-14T09:02:30;28.70;99.90
16976;DHT22;8604;48.148;-1.786;2023-06-14T09:05:03;29.10;99.90
16976;DHT22;8604;48.148;-1.786;2023-06-14T09:07:32;29.40;99.90
16976;DHT22;8604;48.148;-1.786;2023-06-14T09:10:20;29.60;99.90
16976;DHT22;8604;48.148;-1.786;2023-06-14T09:13:06;30.40;99.90
16976;DHT22;8604;48.148;-1.786;2023-06-14T09:15:35;30.50;99.90
16976;DHT22;8604;48.148;-1.786;2023-06-14T09:19:30;31.20;99.90
16976;DHT22;8604;48.148;-1.786;2023-06-14T09:21:11;31.60;99.90
16976;DHT22;8604;48.148;-1.786;2023-06-14T09:24:19;32.10;99.90
16976;DHT22;8604;48.148;-1.786;2023-06-14T09:27:08;32.30;99.90
16976;DHT22;8604;48.148;-1.786;2023-06-14T09:35:04;33.20;99.90
16976;DHT22;8604;48.148;-1.786;2023-06-14T09:38:27;33.40;99.90
16976;DHT22;8604;48.148;-1.786;2023-06-14T09:42:11;33.60;99.90
16976;DHT22;8604;48.148;-1.786;2023-06-14T09:46:01;33.80;99.90
16976;DHT22;8604;48.148;-1.786;2023-06-14T09:49:36;33.80;99.90
16976;DHT22;8604;48.148;-1.786;2023-06-14T09:53:42;33.50;99.90
16976;DHT22;8604;48.148;-1.786;2023-06-14T09:56:21;33.50;99.90
16976;DHT22;8604;48.148;-1.786;2023-06-14T09:59:05;33.70;99.90
16976;DHT22;8604;48.148;-1.786;2023-06-14T10:02:05;34.20;99.90
16976;DHT22;8604;48.148;-1.786;2023-06-14T10:05:32;34.80;99.90
16976;DHT22;8604;48.148;-1.786;2023-06-14T10:08:21;35.30;99.90
16976;DHT22;8604;48.148;-1.786;2023-06-14T10:10:53;35.80;99.90
16976;DHT22;8604;48.148;-1.786;2023-06-14T10:13:25;35.90;99.90
16976;DHT22;8604;48.148;-1.786;2023-06-14T10:16:15;36.10;99.90
16976;DHT22;8604;48.148;-1.786;2023-06-14T10:18:58;36.20;99.90
16976;DHT22;8604;48.148;-1.786;2023-06-14T10:21:38;36.20;99.90
16976;DHT22;8604;48.148;-1.786;2023-06-14T10:24:13;36.10;99.90
16976;DHT22;8604;48.148;-1.786;2023-06-14T10:26:51;36.20;99.90
16976;DHT22;8604;48.148;-1.786;2023-06-14T10:40:56;36.90;99.90
16976;DHT22;8604;48.148;-1.786;2023-06-14T14:24:15;31.70;99.90
16976;DHT22;8604;48.148;-1.786;2023-06-14T14:26:44;31.60;99.90
16976;DHT22;8604;48.148;-1.786;2023-06-14T14:29:15;31.60;99.90
16976;DHT22;8604;48.148;-1.786;2023-06-14T14:31:44;31.50;99.90
16976;DHT22;8604;48.148;-1.786;2023-06-14T14:34:13;31.50;99.90
16976;DHT22;8604;48.148;-1.786;2023-06-14T14:36:42;31.30;99.90
16976;DHT22;8604;48.148;-1.786;2023-06-14T14:39:16;31.30;99.90
16976;DHT22;8604;48.148;-1.786;2023-06-14T14:41:57;31.30;99.90
16976;DHT22;8604;48.148;-1.786;2023-06-14T14:44:44;31.30;99.90
16976;DHT22;8604;48.148;-1.786;2023-06-14T14:48:05;31.30;99.90
16976;DHT22;8604;48.148;-1.786;2023-06-14T14:50:37;31.30;99.90
16976;DHT22;8604;48.148;-1.786;2023-06-14T14:53:10;31.30;99.90
16976;DHT22;8604;48.148;-1.786;2023-06-14T14:55:41;31.20;99.90
16976;DHT22;8604;48.148;-1.786;2023-06-14T14:58:13;31.00;99.90
16976;DHT22;8604;48.148;-1.786;2023-06-14T15:00:47;31.00;99.90
16976;DHT22;8604;48.148;-1.786;2023-06-14T15:03:21;31.00;99.90
16976;DHT22;8604;48.148;-1.786;2023-06-14T15:05:55;30.90;99.90
16976;DHT22;8604;48.148;-1.786;2023-06-14T15:08:24;30.90;99.90
16976;DHT22;8604;48.148;-1.786;2023-06-14T15:10:59;30.80;99.90
16976;DHT22;8604;48.148;-1.786;2023-06-14T15:14:26;30.80;99.90
16976;DHT22;8604;48.148;-1.786;2023-06-14T15:16:52;30.70;99.90
16976;DHT22;8604;48.148;-1.786;2023-06-14T15:19:21;30.50;99.90
16976;DHT22;8604;48.148;-1.786;2023-06-14T15:21:52;30.40;99.90
16976;DHT22;8604;48.148;-1.786;2023-06-14T15:24:21;30.40;99.90
16976;DHT22;8604;48.148;-1.786;2023-06-14T15:27:11;30.40;99.90
16976;DHT22;8604;48.148;-1.786;2023-06-14T15:29:42;30.40;99.90
16976;DHT22;8604;48.148;-1.786;2023-06-14T15:32:15;30.20;99.90
16976;DHT22;8604;48.148;-1.786;2023-06-14T15:34:45;30.20;99.90
16976;DHT22;8604;48.148;-1.786;2023-06-14T15:37:16;30.10;99.90
16976;DHT22;8604;48.148;-1.786;2023-06-14T15:39:45;30.00;99.90
16976;DHT22;8604;48.148;-1.786;2023-06-14T15:42:16;30.00;99.90
16976;DHT22;8604;48.148;-1.786;2023-06-14T15:44:48;30.00;99.90
16976;DHT22;8604;48.148;-1.786;2023-06-14T15:47:17;29.90;99.90
16976;DHT22;8604;48.148;-1.786;2023-06-14T15:49:50;29.80;99.90
16976;DHT22;8604;48.148;-1.786;2023-06-14T15:52:20;29.80;99.90
16976;DHT22;8604;48.148;-1.786;2023-06-14T15:54:49;29.80;99.90
16976;DHT22;8604;48.148;-1.786;2023-06-14T15:57:27;29.80;99.90
16976;DHT22;8604;48.148;-1.786;2023-06-14T16:00:24;29.80;99.90
16976;DHT22;8604;48.148;-1.786;2023-06-14T16:03:13;29.80;99.90
16976;DHT22;8604;48.148;-1.786;2023-06-14T16:09:15;29.70;99.90
16976;DHT22;8604;48.148;-1.786;2023-06-14T16:12:47;29.40;99.90
16976;DHT22;8604;48.148;-1.786;2023-06-14T16:15:43;29.40;99.90
16976;DHT22;8604;48.148;-1.786;2023-06-14T16:18:17;29.30;99.90
16976;DHT22;8604;48.148;-1.786;2023-06-14T16:20:52;29.20;99.90
16976;DHT22;8604;48.148;-1.786;2023-06-14T16:23:23;29.20;99.90
16976;DHT22;8604;48.148;-1.786;2023-06-14T16:26:12;29.20;99.90
16976;DHT22;8604;48.148;-1.786;2023-06-14T16:28:44;29.30;99.90
16976;DHT22;8604;48.148;-1.786;2023-06-14T16:31:35;29.20;99.90
16976;DHT22;8604;48.148;-1.786;2023-06-14T16:34:23;29.20;99.90
16976;DHT22;8604;48.148;-1.786;2023-06-14T16:37:01;29.10;99.90
16976;DHT22;8604;48.148;-1.786;2023-06-14T16:39:32;29.10;99.90
16976;DHT22;8604;48.148;-1.786;2023-06-14T16:42:21;29.00;99.90
16976;DHT22;8604;48.148;-1.786;2023-06-14T16:45:32;29.00;99.90
16976;DHT22;8604;48.148;-1.786;2023-06-14T16:48:11;29.00;99.90
16976;DHT22;8604;48.148;-1.786;2023-06-14T16:50:42;28.90;99.90
16976;DHT22;8604;48.148;-1.786;2023-06-14T16:53:19;28.90;99.90
16976;DHT22;8604;48.148;-1.786;2023-06-14T16:55:49;28.70;99.90
16976;DHT22;8604;48.148;-1.786;2023-06-14T16:58:23;28.60;99.90
16976;DHT22;8604;48.148;-1.786;2023-06-14T17:01:03;28.50;99.90
16976;DHT22;8604;48.148;-1.786;2023-06-14T17:03:33;28.50;99.90
16976;DHT22;8604;48.148;-1.786;2023-06-14T17:06:03;28.40;99.90
16976;DHT22;8604;48.148;-1.786;2023-06-14T17:08:33;28.40;99.90
16976;DHT22;8604;48.148;-1.786;2023-06-14T17:11:27;28.30;99.90
16976;DHT22;8604;48.148;-1.786;2023-06-14T17:15:01;28.20;99.90
16976;DHT22;8604;48.148;-1.786;2023-06-14T17:17:31;28.10;99.90
16976;DHT22;8604;48.148;-1.786;2023-06-14T17:20:15;28.00;99.90
16976;DHT22;8604;48.148;-1.786;2023-06-14T17:22:45;27.90;99.90
16976;DHT22;8604;48.148;-1.786;2023-06-14T17:25:15;27.90;99.90
16976;DHT22;8604;48.148;-1.786;2023-06-14T17:27:44;27.80;99.90
16976;DHT22;8604;48.148;-1.786;2023-06-14T17:30:17;27.80;99.90
16976;DHT22;8604;48.148;-1.786;2023-06-14T17:32:53;27.80;99.90
16976;DHT22;8604;48.148;-1.786;2023-06-14T17:35:24;27.70;99.90
16976;DHT22;8604;48.148;-1.786;2023-06-14T17:38:21;27.70;99.90
16976;DHT22;8604;48.148;-1.786;2023-06-14T17:40:53;27.60;99.90
16976;DHT22;8604;48.148;-1.786;2023-06-14T17:43:29;27.60;99.90
16976;DHT22;8604;48.148;-1.786;2023-06-14T17:46:03;27.50;99.90
16976;DHT22;8604;48.148;-1.786;2023-06-14T17:48:32;27.40;99.90
16976;DHT22;8604;48.148;-1.786;2023-06-14T17:51:07;27.40;99.90
16976;DHT22;8604;48.148;-1.786;2023-06-14T17:53:37;27.30;99.90
16976;DHT22;8604;48.148;-1.786;2023-06-14T17:56:26;27.30;99.90
16976;DHT22;8604;48.148;-1.786;2023-06-14T17:59:12;27.10;99.90
16976;DHT22;8604;48.148;-1.786;2023-06-14T18:01:42;26.90;99.90
16976;DHT22;8604;48.148;-1.786;2023-06-14T18:04:30;26.80;99.90
16976;DHT22;8604;48.148;-1.786;2023-06-14T18:07:06;26.70;99.90
16976;DHT22;8604;48.148;-1.786;2023-06-14T18:09:35;26.60;99.90
16976;DHT22;8604;48.148;-1.786;2023-06-14T18:12:04;26.60;99.90
16976;DHT22;8604;48.148;-1.786;2023-06-14T18:14:36;26.60;99.90
16976;DHT22;8604;48.148;-1.786;2023-06-14T18:17:05;26.50;99.90
16976;DHT22;8604;48.148;-1.786;2023-06-14T18:19:34;26.40;99.90
16976;DHT22;8604;48.148;-1.786;2023-06-14T18:22:05;26.30;99.90
16976;DHT22;8604;48.148;-1.786;2023-06-14T18:24:34;26.20;99.90
16976;DHT22;8604;48.148;-1.786;2023-06-14T18:27:06;26.20;99.90
16976;DHT22;8604;48.148;-1.786;2023-06-14T18:29:39;26.10;99.90
16976;DHT22;8604;48.148;-1.786;2023-06-14T18:32:08;26.00;99.90
16976;DHT22;8604;48.148;-1.786;2023-06-14T18:34:37;25.90;99.90
16976;DHT22;8604;48.148;-1.786;2023-06-14T18:37:08;25.80;99.90
16976;DHT22;8604;48.148;-1.786;2023-06-14T18:39:38;25.80;99.90
16976;DHT22;8604;48.148;-1.786;2023-06-14T19:24:15;24.30;99.90
16976;DHT22;8604;48.148;-1.786;2023-06-14T19:32:26;24.10;99.90
16976;DHT22;8604;48.148;-1.786;2023-06-14T19:35:06;24.00;99.90
16976;DHT22;8604;48.148;-1.786;2023-06-14T19:37:42;23.90;99.90
16976;DHT22;8604;48.148;-1.786;2023-06-14T19:40:26;23.80;99.90
16976;DHT22;8604;48.148;-1.786;2023-06-14T19:43:51;23.80;99.90
16976;DHT22;8604;48.148;-1.786;2023-06-14T19:46:29;23.70;99.90
16976;DHT22;8604;48.148;-1.786;2023-06-14T19:49:29;23.70;99.90
16976;DHT22;8604;48.148;-1.786;2023-06-14T19:51:58;23.60;99.90
16976;DHT22;8604;48.148;-1.786;2023-06-14T19:54:29;23.60;99.90
16976;DHT22;8604;48.148;-1.786;2023-06-14T19:57:01;23.50;99.90
16976;DHT22;8604;48.148;-1.786;2023-06-14T20:00:20;23.30;99.90
16976;DHT22;8604;48.148;-1.786;2023-06-14T20:03:31;23.20;99.90
16976;DHT22;8604;48.148;-1.786;2023-06-14T20:06:22;23.00;99.90
16976;DHT22;8604;48.148;-1.786;2023-06-14T20:09:28;22.90;99.90
16976;DHT22;8604;48.148;-1.786;2023-06-14T20:12:28;22.80;99.90
16976;DHT22;8604;48.148;-1.786;2023-06-14T20:15:01;22.70;99.90
16976;DHT22;8604;48.148;-1.786;2023-06-14T20:17:30;22.70;99.90
16976;DHT22;8604;48.148;-1.786;2023-06-14T20:20:18;22.50;99.90
16976;DHT22;8604;48.148;-1.786;2023-06-14T20:22:57;22.40;99.90
16976;DHT22;8604;48.148;-1.786;2023-06-14T20:25:33;22.40;99.90
16976;DHT22;8604;48.148;-1.786;2023-06-14T20:28:08;22.30;99.90
16976;DHT22;8604;48.148;-1.786;2023-06-14T21:12:04;21.50;99.90
16976;DHT22;8604;48.148;-1.786;2023-06-14T21:14:33;21.40;99.90
16976;DHT22;8604;48.148;-1.786;2023-06-14T21:17:02;21.30;99.90
16976;DHT22;8604;48.148;-1.786;2023-06-14T21:19:33;21.30;99.90
16976;DHT22;8604;48.148;-1.786;2023-06-14T21:22:02;21.30;99.90
16976;DHT22;8604;48.148;-1.786;2023-06-14T21:24:30;21.30;99.90
16976;DHT22;8604;48.148;-1.786;2023-06-14T21:26:59;21.30;99.90
16976;DHT22;8604;48.148;-1.786;2023-06-14T21:29:29;21.30;99.90
16976;DHT22;8604;48.148;-1.786;2023-06-14T21:31:57;21.30;99.90
16976;DHT22;8604;48.148;-1.786;2023-06-14T21:34:26;21.30;99.90
16976;DHT22;8604;48.148;-1.786;2023-06-14T21:36:55;21.10;99.90
16976;DHT22;8604;48.148;-1.786;2023-06-14T21:39:23;21.10;99.90
16976;DHT22;8604;48.148;-1.786;2023-06-14T21:41:51;20.90;99.90
16976;DHT22;8604;48.148;-1.786;2023-06-14T21:44:21;20.90;99.90
16976;DHT22;8604;48.148;-1.786;2023-06-14T21:46:51;20.80;99.90
16976;DHT22;8604;48.148;-1.786;2023-06-14T21:49:19;20.60;99.90
16976;DHT22;8604;48.148;-1.786;2023-06-14T21:51:47;20.50;99.90
16976;DHT22;8604;48.148;-1.786;2023-06-14T21:54:16;20.50;99.90
16976;DHT22;8604;48.148;-1.786;2023-06-14T21:56:44;20.50;99.90
16976;DHT22;8604;48.148;-1.786;2023-06-14T21:59:13;20.50;99.90
16976;DHT22;8604;48.148;-1.786;2023-06-14T22:01:41;20.50;99.90
16976;DHT22;8604;48.148;-1.786;2023-06-14T22:04:11;20.60;99.90
16976;DHT22;8604;48.148;-1.786;2023-06-14T22:06:39;20.60;99.90
16976;DHT22;8604;48.148;-1.786;2023-06-14T22:09:10;20.60;99.90
16976;DHT22;8604;48.148;-1.786;2023-06-14T22:11:42;20.60;99.90
16976;DHT22;8604;48.148;-1.786;2023-06-14T22:14:11;20.50;99.90
16976;DHT22;8604;48.148;-1.786;2023-06-14T22:16:39;20.40;99.90
16976;DHT22;8604;48.148;-1.786;2023-06-14T22:19:10;20.30;99.90
16976;DHT22;8604;48.148;-1.786;2023-06-14T22:21:39;20.30;99.90
16976;DHT22;8604;48.148;-1.786;2023-06-14T22:24:11;20.20;99.90
16976;DHT22;8604;48.148;-1.786;2023-06-14T22:26:43;20.20;99.90
16976;DHT22;8604;48.148;-1.786;2023-06-14T22:29:14;20.10;99.90
16976;DHT22;8604;48.148;-1.786;2023-06-14T22:31:43;20.10;99.90
16976;DHT22;8604;48.148;-1.786;2023-06-14T22:34:13;20.10;99.90
16976;DHT22;8604;48.148;-1.786;2023-06-14T22:36:42;20.10;99.90
16976;DHT22;8604;48.148;-1.786;2023-06-14T22:39:14;20.10;99.90
16976;DHT22;8604;48.148;-1.786;2023-06-14T22:41:43;20.10;99.90
16976;DHT22;8604;48.148;-1.786;2023-06-14T22:44:14;20.10;99.90
16976;DHT22;8604;48.148;-1.786;2023-06-14T22:46:45;20.10;99.90
16976;DHT22;8604;48.148;-1.786;2023-06-14T22:49:14;20.10;99.90
16976;DHT22;8604;48.148;-1.786;2023-06-14T22:51:44;20.00;99.90
16976;DHT22;8604;48.148;-1.786;2023-06-14T22:54:12;20.00;99.90
16976;DHT22;8604;48.148;-1.786;2023-06-14T22:56:41;20.00;99.90
16976;DHT22;8604;48.148;-1.786;2023-06-14T22:59:09;19.90;99.90
16976;DHT22;8604;48.148;-1.786;2023-06-14T23:01:37;19.80;99.90
16976;DHT22;8604;48.148;-1.786;2023-06-14T23:04:06;19.70;99.90
16976;DHT22;8604;48.148;-1.786;2023-06-14T23:06:36;19.70;99.90
16976;DHT22;8604;48.148;-1.786;2023-06-14T23:09:04;19.70;99.90
16976;DHT22;8604;48.148;-1.786;2023-06-14T23:11:33;19.70;99.90
16976;DHT22;8604;48.148;-1.786;2023-06-14T23:14:01;19.60;99.90
16976;DHT22;8604;48.148;-1.786;2023-06-14T23:16:29;19.70;99.90
16976;DHT22;8604;48.148;-1.786;2023-06-14T23:18:58;19.60;99.90
16976;DHT22;8604;48.148;-1.786;2023-06-14T23:21:26;19.60;99.90
16976;DHT22;8604;48.148;-1.786;2023-06-14T23:23:56;19.50;99.90
16976;DHT22;8604;48.148;-1.786;2023-06-14T23:26:25;19.50;99.90
16976;DHT22;8604;48.148;-1.786;2023-06-14T23:28:55;19.50;99.90